createdAt,value
2023-11-04T00:01:23.966Z,100.00
2023-11-04T00:03:52.081Z,100.00
2023-11-04T00:06:20.121Z,100.00
2023-11-04T00:08:47.117Z,100.00
2023-11-04T00:11:14.000Z,100.00
2023-11-04T00:13:40.967Z,100.00
2023-11-04T00:16:10.807Z,100.00
2023-11-04T00:18:38.381Z,100.00
2023-11-04T00:21:08.336Z,100.00
2023-11-04T00:23:35.348Z,100.00
2023-11-04T00:26:02.196Z,100.00
2023-11-04T00:28:29.041Z,100.00
2023-11-04T00:30:56.073Z,100.00
2023-11-04T00:33:23.126Z,100.00
2023-11-04T00:35:50.602Z,100.00
2023-11-04T00:38:18.028Z,100.00
2023-11-04T00:40:44.852Z,100.00
2023-11-04T00:43:11.767Z,100.00
2023-11-04T00:45:38.636Z,100.00
2023-11-04T00:48:05.791Z,100.00
2023-11-04T00:50:32.772Z,100.00
2023-11-04T00:52:59.656Z,100.00
2023-11-04T00:55:26.665Z,100.00
2023-11-04T00:57:53.574Z,100.00
2023-11-04T01:00:26.856Z,100.00
2023-11-04T01:02:55.710Z,100.00
2023-11-04T01:05:24.512Z,100.00
2023-11-04T01:07:51.454Z,100.00
2023-11-04T01:10:18.399Z,100.00
2023-11-04T01:12:45.426Z,100.00
2023-11-04T01:15:12.437Z,100.00
2023-11-04T01:17:39.456Z,100.00
2023-11-04T01:20:09.141Z,100.00
2023-11-04T01:22:36.613Z,100.00
2023-11-04T01:25:04.090Z,100.00
2023-11-04T01:27:31.095Z,100.00
2023-11-04T01:29:57.940Z,100.00
2023-11-04T01:32:25.006Z,100.00
2023-11-04T01:34:52.103Z,100.00
2023-11-04T01:37:20.348Z,100.00
2023-11-04T01:39:48.050Z,100.00
2023-11-04T01:42:15.152Z,100.00
2023-11-04T01:44:42.343Z,100.00
2023-11-04T01:47:09.345Z,100.00
2023-11-04T01:49:36.281Z,100.00
2023-11-04T01:52:04.012Z,100.00
2023-11-04T01:54:32.276Z,100.00
2023-11-04T01:56:59.677Z,100.00
2023-11-04T01:59:27.385Z,100.00
2023-11-04T02:01:54.824Z,100.00
2023-11-04T02:04:22.031Z,100.00
2023-11-04T02:06:49.402Z,100.00
2023-11-04T02:09:16.976Z,100.00
2023-11-04T02:11:44.096Z,100.00
2023-11-04T02:14:12.030Z,100.00
2023-11-04T02:16:39.148Z,100.00
2023-11-04T02:19:06.434Z,100.00
2023-11-04T02:21:33.758Z,100.00
2023-11-04T02:24:00.813Z,100.00
2023-11-04T02:26:28.292Z,100.00
2023-11-04T02:28:55.153Z,100.00
2023-11-04T02:31:22.127Z,100.00
2023-11-04T02:33:49.082Z,100.00
2023-11-04T02:36:16.175Z,100.00
2023-11-04T02:38:43.509Z,100.00
2023-11-04T02:41:10.430Z,100.00
2023-11-04T02:43:37.355Z,100.00
2023-11-04T02:46:10.394Z,100.00
2023-11-04T02:48:37.364Z,100.00
2023-11-04T02:51:04.596Z,100.00
2023-11-04T02:53:31.433Z,100.00
2023-11-04T02:55:58.198Z,100.00
2023-11-04T02:58:25.046Z,100.00
2023-11-04T03:00:51.927Z,100.00
2023-11-04T03:06:58.922Z,100.00
2023-11-04T03:09:25.750Z,100.00
2023-11-04T03:11:53.420Z,100.00
2023-11-04T03:14:20.268Z,100.00
2023-11-04T03:16:48.125Z,100.00
2023-11-04T03:19:14.952Z,100.00
2023-11-04T03:21:45.203Z,100.00
2023-11-04T03:24:12.569Z,100.00
2023-11-04T03:26:39.776Z,100.00
2023-11-04T03:29:07.177Z,100.00
2023-11-04T03:31:33.978Z,100.00
2023-11-04T03:34:00.963Z,100.00
2023-11-04T03:36:27.919Z,100.00
2023-11-04T03:38:54.780Z,100.00
2023-11-04T03:41:21.669Z,100.00
2023-11-04T03:43:48.511Z,100.00
2023-11-04T03:46:15.318Z,100.00
2023-11-04T03:48:42.262Z,100.00
2023-11-04T03:51:11.853Z,100.00
2023-11-04T03:53:38.794Z,100.00
2023-11-04T03:56:06.052Z,100.00
2023-11-04T03:58:33.074Z,100.00
2023-11-04T04:00:59.977Z,100.00
2023-11-04T04:03:26.927Z,100.00
2023-11-04T04:05:53.862Z,100.00
2023-11-04T04:08:20.726Z,100.00
2023-11-04T04:10:47.568Z,100.00
2023-11-04T04:13:14.600Z,100.00
2023-11-04T04:15:41.412Z,100.00
2023-11-04T04:18:08.330Z,100.00
2023-11-04T04:20:35.322Z,100.00
2023-11-04T04:23:02.119Z,100.00
2023-11-04T04:25:28.903Z,100.00
2023-11-04T04:27:55.775Z,100.00
2023-11-04T04:30:22.677Z,100.00
2023-11-04T04:32:50.239Z,100.00
2023-11-04T04:35:17.158Z,100.00
2023-11-04T04:37:43.987Z,100.00
2023-11-04T04:40:10.993Z,100.00
2023-11-04T04:42:38.167Z,100.00
2023-11-04T04:45:05.450Z,100.00
2023-11-04T04:47:34.596Z,100.00
2023-11-04T04:50:01.497Z,100.00
2023-11-04T04:52:28.297Z,100.00
2023-11-04T04:54:55.165Z,100.00
2023-11-04T04:57:22.058Z,100.00
2023-11-04T04:59:49.085Z,100.00
2023-11-04T05:02:16.383Z,100.00
2023-11-04T05:04:46.389Z,100.00
2023-11-04T05:07:13.263Z,100.00
2023-11-04T05:09:40.109Z,100.00
2023-11-04T05:12:07.783Z,100.00
2023-11-04T05:14:34.741Z,100.00
2023-11-04T05:17:01.534Z,100.00
2023-11-04T05:19:28.716Z,100.00
2023-11-04T05:21:55.618Z,100.00
2023-11-04T05:24:22.562Z,100.00
2023-11-04T05:26:49.513Z,100.00
2023-11-04T05:29:16.305Z,100.00
2023-11-04T05:31:43.185Z,100.00
2023-11-04T05:34:13.098Z,100.00
2023-11-04T05:36:40.030Z,100.00
2023-11-04T05:39:06.859Z,100.00
2023-11-04T05:41:33.708Z,100.00
2023-11-04T05:44:00.492Z,100.00
2023-11-04T05:46:27.353Z,100.00
2023-11-04T05:48:54.258Z,100.00
2023-11-04T05:51:26.450Z,100.00
2023-11-04T05:53:53.707Z,100.00
2023-11-04T05:56:21.365Z,100.00
2023-11-04T05:58:48.894Z,100.00
2023-11-04T06:01:16.022Z,100.00
2023-11-04T06:03:43.057Z,100.00
2023-11-04T06:06:09.962Z,100.00
2023-11-04T06:08:37.345Z,100.00
2023-11-04T06:11:04.718Z,100.00
2023-11-04T06:13:31.584Z,100.00
2023-11-04T06:15:58.461Z,100.00
2023-11-04T06:18:25.462Z,100.00
2023-11-04T06:20:52.388Z,100.00
2023-11-04T06:23:19.365Z,100.00
2023-11-04T06:29:10.658Z,100.00
2023-11-04T06:31:37.476Z,100.00
2023-11-04T06:34:04.724Z,100.00
2023-11-04T06:36:34.602Z,100.00
2023-11-04T06:39:01.764Z,100.00
2023-11-04T06:41:28.570Z,100.00
2023-11-04T06:43:55.570Z,100.00
2023-11-04T06:46:22.501Z,100.00
2023-11-04T06:48:49.737Z,100.00
2023-11-04T06:51:20.387Z,100.00
2023-11-04T06:53:47.315Z,100.00
2023-11-04T06:56:15.113Z,100.00
2023-11-04T06:58:42.319Z,100.00
2023-11-04T07:01:15.112Z,100.00
2023-11-04T07:03:42.686Z,100.00
2023-11-04T07:06:14.326Z,100.00
2023-11-04T07:08:43.839Z,100.00
2023-11-04T07:11:14.635Z,100.00
2023-11-04T07:13:42.777Z,100.00
2023-11-04T07:16:13.857Z,100.00
2023-11-04T07:18:44.487Z,100.00
2023-11-04T07:21:13.096Z,100.00
2023-11-04T07:23:40.176Z,100.00
2023-11-04T07:26:09.001Z,100.00
2023-11-04T07:28:37.441Z,100.00
2023-11-04T07:31:06.379Z,100.00
2023-11-04T07:33:34.592Z,100.00
2023-11-04T07:36:01.862Z,100.00
2023-11-04T07:38:28.756Z,100.00
2023-11-04T07:40:55.700Z,100.00
2023-11-04T07:43:22.541Z,100.00
2023-11-04T07:45:50.005Z,100.00
2023-11-04T07:48:17.890Z,100.00
2023-11-04T07:50:44.876Z,100.00
2023-11-04T07:53:11.766Z,100.00
2023-11-04T07:55:38.916Z,100.00
2023-11-04T07:58:05.916Z,100.00
2023-11-04T08:00:32.925Z,100.00
2023-11-04T08:03:02.788Z,100.00
2023-11-04T08:05:30.565Z,100.00
2023-11-04T08:07:57.767Z,100.00
2023-11-04T08:10:25.384Z,100.00
2023-11-04T08:12:52.793Z,100.00
2023-11-04T08:15:20.076Z,100.00
2023-11-04T08:17:47.036Z,100.00
2023-11-04T08:20:13.882Z,100.00
2023-11-04T08:22:41.084Z,100.00
2023-11-04T08:25:09.385Z,100.00
2023-11-04T08:27:36.757Z,100.00
2023-11-04T08:30:05.916Z,100.00
2023-11-04T08:32:33.107Z,100.00
2023-11-04T08:35:00.478Z,100.00
2023-11-04T08:37:27.957Z,100.00
2023-11-04T08:39:56.328Z,100.00
2023-11-04T08:42:24.098Z,100.00
2023-11-04T08:44:51.246Z,100.00
2023-11-04T08:47:18.443Z,100.00
2023-11-04T08:49:45.801Z,100.00
2023-11-04T08:52:13.163Z,100.00
2023-11-04T08:54:42.015Z,100.00
2023-11-04T08:57:09.565Z,100.00
2023-11-04T08:59:37.589Z,100.00
2023-11-04T09:02:04.779Z,100.00
2023-11-04T09:04:32.001Z,100.00
2023-11-04T09:06:59.295Z,100.00
2023-11-04T09:09:26.695Z,100.00
2023-11-04T09:11:56.970Z,100.00
2023-11-04T09:14:26.983Z,100.00
2023-11-04T09:16:54.277Z,100.00
2023-11-04T09:19:21.552Z,100.00
2023-11-04T09:21:48.749Z,100.00
2023-11-04T09:24:15.641Z,100.00
2023-11-04T09:26:42.455Z,100.00
2023-11-04T09:29:09.325Z,100.00
2023-11-04T09:31:37.594Z,100.00
2023-11-04T09:34:09.921Z,100.00
2023-11-04T09:36:37.230Z,100.00
2023-11-04T09:39:05.899Z,100.00
2023-11-04T09:41:35.582Z,100.00
2023-11-04T09:44:04.545Z,100.00
2023-11-04T09:46:33.093Z,100.00
2023-11-04T09:49:00.598Z,100.00
2023-11-04T09:51:29.120Z,100.00
2023-11-04T09:54:00.192Z,100.00
2023-11-04T09:56:28.161Z,100.00
2023-11-04T09:58:55.109Z,100.00
2023-11-04T10:01:22.158Z,100.00
2023-11-04T10:03:49.785Z,100.00
2023-11-04T10:06:17.371Z,100.00
2023-11-04T10:08:45.872Z,100.00
2023-11-04T10:11:12.931Z,100.00
2023-11-04T10:13:40.787Z,100.00
2023-11-04T10:16:08.968Z,100.00
2023-11-04T10:18:39.084Z,100.00
2023-11-04T10:21:07.615Z,100.00
2023-11-04T10:23:36.343Z,100.00
2023-11-04T10:26:05.465Z,100.00
2023-11-04T10:28:33.601Z,100.00
2023-11-04T10:31:05.363Z,99.30
2023-11-04T10:33:40.346Z,99.90
2023-11-04T10:36:12.570Z,99.80
2023-11-04T10:38:45.316Z,100.00
2023-11-04T10:41:18.256Z,98.00
2023-11-04T10:44:00.700Z,98.50
2023-11-04T10:46:59.616Z,97.10
2023-11-04T10:49:44.510Z,97.10
2023-11-04T10:52:15.008Z,94.70
2023-11-04T10:54:45.329Z,93.70
2023-11-04T10:57:15.444Z,93.30
2023-11-04T11:00:06.273Z,95.60
2023-11-04T11:02:34.836Z,91.70
2023-11-04T11:05:02.568Z,91.10
2023-11-04T11:07:29.899Z,91.30
2023-11-04T11:09:58.633Z,92.70
2023-11-04T11:12:26.413Z,90.50
2023-11-04T11:14:54.668Z,94.90
2023-11-04T11:17:31.332Z,95.30
2023-11-04T11:19:58.334Z,94.40
2023-11-04T11:22:28.619Z,92.90
2023-11-04T11:24:59.606Z,94.70
2023-11-04T11:27:26.862Z,92.60
2023-11-04T11:29:57.765Z,94.00
2023-11-04T11:32:36.055Z,96.50
2023-11-04T11:35:05.349Z,95.30
2023-11-04T11:37:32.390Z,95.60
2023-11-04T11:39:59.257Z,95.70
2023-11-04T11:42:29.089Z,97.00
2023-11-04T11:44:56.435Z,96.30
2023-11-04T11:47:23.621Z,96.30
2023-11-04T11:49:50.520Z,95.70
2023-11-04T11:52:17.515Z,96.30
2023-11-04T11:54:45.328Z,95.70
2023-11-04T11:57:13.151Z,95.40
2023-11-04T11:59:40.739Z,94.70
2023-11-04T12:02:09.212Z,95.00
2023-11-04T12:04:36.605Z,96.20
2023-11-04T12:07:03.990Z,95.80
2023-11-04T12:09:31.604Z,95.80
2023-11-04T12:11:58.563Z,93.90
2023-11-04T12:14:25.707Z,94.50
2023-11-04T12:16:54.264Z,93.40
2023-11-04T12:19:22.935Z,95.00
2023-11-04T12:21:50.451Z,94.80
2023-11-04T12:24:17.867Z,92.60
2023-11-04T12:26:45.653Z,94.00
2023-11-04T12:29:12.529Z,95.00
2023-11-04T12:31:40.591Z,92.70
2023-11-04T12:34:08.394Z,87.90
2023-11-04T12:36:35.615Z,86.70
2023-11-04T12:39:04.382Z,82.60
2023-11-04T12:41:31.881Z,75.80
2023-11-04T12:44:02.872Z,70.50
2023-11-04T12:46:31.103Z,70.60
2023-11-04T12:48:58.507Z,67.30
2023-11-04T12:51:26.199Z,65.90
2023-11-04T12:53:53.718Z,64.60
2023-11-04T12:56:21.090Z,69.30
2023-11-04T12:58:48.012Z,68.20
2023-11-04T13:01:15.466Z,69.90
2023-11-04T13:03:42.884Z,73.20
2023-11-04T13:06:09.985Z,76.70
2023-11-04T13:08:36.829Z,76.90
2023-11-04T13:11:32.905Z,78.90
2023-11-04T13:13:59.763Z,82.20
2023-11-04T13:16:27.530Z,84.80
2023-11-04T13:18:54.753Z,85.70
2023-11-04T13:21:22.576Z,85.80
2023-11-04T13:23:49.425Z,89.10
2023-11-04T13:26:16.289Z,89.60
2023-11-04T13:28:43.095Z,89.30
2023-11-04T13:31:09.966Z,89.70
2023-11-04T13:33:38.418Z,90.70
2023-11-04T13:36:05.828Z,90.70
2023-11-04T13:38:32.643Z,90.50
2023-11-04T13:40:59.557Z,92.60
2023-11-04T13:43:26.381Z,91.50
2023-11-04T13:45:53.230Z,91.40
2023-11-04T13:48:20.088Z,90.70
2023-11-04T13:50:46.944Z,90.00
2023-11-04T13:53:13.828Z,89.80
2023-11-04T13:55:40.619Z,90.40
2023-11-04T13:58:07.641Z,90.70
2023-11-04T14:00:34.642Z,92.00
2023-11-04T14:03:01.560Z,92.60
2023-11-04T14:05:29.237Z,92.90
2023-11-04T14:07:56.378Z,93.30
2023-11-04T14:10:23.414Z,91.70
2023-11-04T14:12:50.777Z,92.50
2023-11-04T14:15:20.312Z,92.50
2023-11-04T14:17:47.211Z,92.10
2023-11-04T14:20:14.856Z,92.10
2023-11-04T14:22:41.724Z,92.10
2023-11-04T14:25:09.378Z,93.70
2023-11-04T14:27:36.512Z,94.10
2023-11-04T14:30:05.939Z,94.50
2023-11-04T14:32:33.698Z,95.10
2023-11-04T14:35:01.455Z,94.90
2023-11-04T14:37:28.779Z,96.10
2023-11-04T14:39:57.860Z,96.30
2023-11-04T14:42:25.482Z,96.00
2023-11-04T14:44:52.343Z,95.60
2023-11-04T14:47:19.207Z,96.20
2023-11-04T14:49:46.221Z,95.00
2023-11-04T14:52:13.637Z,95.40
2023-11-04T14:54:40.600Z,96.10
2023-11-04T14:57:07.524Z,96.40
2023-11-04T14:59:34.350Z,96.20
2023-11-04T15:02:01.205Z,96.20
2023-11-04T15:04:28.073Z,96.90
2023-11-04T15:06:54.966Z,96.90
2023-11-04T15:09:21.916Z,97.40
2023-11-04T15:11:49.169Z,97.50
2023-11-04T15:14:18.008Z,98.00
2023-11-04T15:16:44.975Z,97.80
2023-11-04T15:19:11.935Z,98.10
2023-11-04T15:21:38.972Z,98.30
2023-11-04T15:24:06.909Z,98.30
2023-11-04T15:26:33.819Z,98.60
2023-11-04T15:29:00.635Z,98.00
2023-11-04T15:31:27.486Z,98.20
2023-11-04T15:33:54.438Z,98.80
2023-11-04T15:36:21.607Z,98.60
2023-11-04T15:38:48.718Z,98.80
2023-11-04T15:41:15.541Z,99.00
2023-11-04T15:43:42.494Z,98.40
2023-11-04T15:46:09.344Z,99.00
2023-11-04T15:48:36.345Z,99.00
2023-11-04T15:51:03.487Z,99.70
2023-11-04T15:53:30.401Z,100.00
2023-11-04T15:55:57.603Z,100.00
2023-11-04T15:58:28.233Z,100.00
2023-11-04T16:00:56.940Z,99.80
2023-11-04T16:03:23.850Z,100.00
2023-11-04T16:05:50.658Z,100.00
2023-11-04T16:08:17.453Z,100.00
2023-11-04T16:10:44.311Z,100.00
2023-11-04T16:13:11.349Z,100.00
2023-11-04T16:15:38.235Z,100.00
2023-11-04T16:18:05.413Z,100.00
2023-11-04T16:20:33.064Z,100.00
2023-11-04T16:23:01.552Z,100.00
2023-11-04T16:25:30.491Z,100.00
2023-11-04T16:27:57.730Z,100.00
2023-11-04T16:30:24.572Z,100.00
2023-11-04T16:32:52.474Z,100.00
2023-11-04T16:35:19.868Z,100.00
2023-11-04T16:37:47.068Z,100.00
2023-11-04T16:40:14.130Z,100.00
2023-11-04T16:42:41.177Z,100.00
2023-11-04T16:45:08.954Z,100.00
2023-11-04T16:47:35.914Z,100.00
2023-11-04T16:50:03.864Z,100.00
2023-11-04T16:52:30.764Z,100.00
2023-11-04T16:54:58.004Z,100.00
2023-11-04T16:57:24.835Z,100.00
2023-11-04T16:59:51.814Z,100.00
2023-11-04T17:02:19.409Z,100.00
2023-11-04T17:04:46.665Z,100.00
2023-11-04T17:07:13.671Z,100.00
2023-11-04T17:09:40.508Z,100.00
2023-11-04T17:12:07.719Z,100.00
2023-11-04T17:14:34.937Z,100.00
2023-11-04T17:17:01.814Z,100.00
2023-11-04T17:19:29.655Z,100.00
2023-11-04T17:21:57.029Z,100.00
2023-11-04T17:24:24.534Z,100.00
2023-11-04T17:26:52.077Z,100.00
2023-11-04T17:29:19.066Z,100.00
2023-11-04T17:31:45.914Z,100.00
2023-11-04T17:34:12.928Z,100.00
2023-11-04T17:36:41.008Z,100.00
2023-11-04T17:39:08.782Z,100.00
2023-11-04T17:41:35.656Z,100.00
2023-11-04T17:44:02.437Z,100.00
2023-11-04T17:46:29.362Z,100.00
2023-11-04T17:48:56.237Z,100.00
2023-11-04T17:51:23.929Z,100.00
2023-11-04T17:53:50.771Z,100.00
2023-11-04T17:56:17.736Z,100.00
2023-11-04T17:58:44.593Z,100.00
2023-11-04T18:01:11.948Z,100.00
2023-11-04T18:03:38.879Z,100.00
2023-11-04T18:06:06.095Z,100.00
2023-11-04T18:08:33.235Z,100.00
2023-11-04T18:11:00.248Z,100.00
2023-11-04T18:13:27.558Z,100.00
2023-11-04T18:15:55.088Z,100.00
2023-11-04T18:18:23.463Z,100.00
2023-11-04T18:20:50.425Z,100.00
2023-11-04T18:23:17.268Z,100.00
2023-11-04T18:25:44.062Z,100.00
2023-11-04T18:28:10.967Z,99.90
2023-11-04T18:30:37.816Z,99.20
2023-11-04T18:33:05.045Z,99.00
2023-11-04T18:35:33.433Z,99.10
2023-11-04T18:38:01.246Z,99.50
2023-11-04T18:40:28.101Z,98.40
2023-11-04T18:42:54.987Z,98.50
2023-11-04T18:45:21.812Z,99.00
2023-11-04T18:47:48.798Z,99.00
2023-11-04T18:50:16.348Z,99.00
2023-11-04T18:52:43.233Z,98.60
2023-11-04T18:55:10.221Z,99.80
2023-11-04T18:57:41.603Z,98.00
2023-11-04T19:00:09.632Z,97.90
2023-11-04T19:02:38.210Z,99.20
2023-11-04T19:05:09.022Z,99.20
2023-11-04T19:07:36.234Z,99.60
2023-11-04T19:10:03.274Z,99.40
2023-11-04T19:12:31.002Z,99.10
2023-11-04T19:14:57.831Z,99.20
2023-11-04T19:17:24.763Z,98.90
2023-11-04T19:19:51.568Z,99.10
2023-11-04T19:22:18.445Z,99.40
2023-11-04T19:24:45.311Z,99.30
2023-11-04T19:27:12.155Z,99.30
2023-11-04T19:29:38.989Z,98.90
2023-11-04T19:32:06.061Z,98.80
2023-11-04T19:34:32.888Z,98.80
2023-11-04T19:36:59.849Z,99.40
2023-11-04T19:39:26.664Z,99.60
2023-11-04T19:41:53.552Z,99.20
2023-11-04T19:44:20.361Z,99.30
2023-11-04T19:46:48.811Z,99.40
2023-11-04T19:49:19.606Z,99.40
2023-11-04T19:51:46.509Z,99.00
2023-11-04T19:54:13.357Z,99.20
2023-11-04T19:56:40.374Z,100.00
2023-11-04T19:59:07.208Z,100.00
2023-11-04T20:01:34.135Z,100.00
2023-11-04T20:04:02.559Z,100.00
2023-11-04T20:06:29.456Z,100.00
2023-11-04T20:08:56.355Z,100.00
2023-11-04T20:11:24.400Z,100.00
2023-11-04T20:13:51.747Z,100.00
2023-11-04T20:16:19.100Z,100.00
2023-11-04T20:18:46.047Z,100.00
2023-11-04T20:21:12.980Z,100.00
2023-11-04T20:23:39.983Z,100.00
2023-11-04T20:26:06.884Z,100.00
2023-11-04T20:28:34.047Z,100.00
2023-11-04T20:31:01.110Z,100.00
2023-11-04T20:33:28.656Z,100.00
2023-11-04T20:35:56.174Z,100.00
2023-11-04T20:38:23.080Z,100.00
2023-11-04T20:40:49.950Z,100.00
2023-11-04T20:43:16.837Z,100.00
2023-11-04T20:45:43.798Z,100.00
2023-11-04T20:48:10.675Z,100.00
2023-11-04T20:50:38.392Z,100.00
2023-11-04T20:53:05.200Z,100.00
2023-11-04T20:55:32.100Z,100.00
2023-11-04T20:57:59.073Z,100.00
2023-11-04T21:00:26.369Z,100.00
2023-11-04T21:02:53.188Z,100.00
2023-11-04T21:05:20.122Z,100.00
2023-11-04T21:07:47.005Z,100.00
2023-11-04T21:10:13.984Z,100.00
2023-11-04T21:12:41.488Z,100.00
2023-11-04T21:15:08.929Z,100.00
2023-11-04T21:17:35.793Z,100.00
2023-11-04T21:20:03.587Z,100.00
2023-11-04T21:22:36.401Z,100.00
2023-11-04T21:25:05.327Z,100.00
2023-11-04T21:27:32.193Z,100.00
2023-11-04T21:29:59.027Z,100.00
2023-11-04T21:32:25.974Z,100.00
2023-11-04T21:34:52.796Z,100.00
2023-11-04T21:37:19.667Z,100.00
2023-11-04T21:39:46.510Z,100.00
2023-11-04T21:42:13.392Z,100.00
2023-11-04T21:44:40.262Z,100.00
2023-11-04T21:47:07.144Z,100.00
2023-11-04T21:49:34.078Z,100.00
2023-11-04T21:52:01.053Z,100.00
2023-11-04T21:54:28.152Z,100.00
2023-11-04T21:56:56.342Z,100.00
2023-11-04T21:59:24.317Z,100.00
2023-11-04T22:01:51.148Z,100.00
2023-11-04T22:04:18.112Z,100.00
2023-11-04T22:06:44.962Z,100.00
2023-11-04T22:09:11.974Z,100.00
2023-11-04T22:11:38.786Z,100.00
2023-11-04T22:14:05.610Z,100.00
2023-11-04T22:16:32.588Z,100.00
2023-11-04T22:18:59.589Z,100.00
2023-11-04T22:21:26.497Z,100.00
2023-11-04T22:23:53.362Z,100.00
2023-11-04T22:26:20.203Z,100.00
2023-11-04T22:28:46.994Z,100.00
2023-11-04T22:31:13.853Z,100.00
2023-11-04T22:33:40.742Z,100.00
2023-11-04T22:36:07.910Z,100.00
2023-11-04T22:38:34.763Z,100.00
2023-11-04T22:41:02.682Z,100.00
2023-11-04T22:43:29.672Z,100.00
2023-11-04T22:45:56.689Z,100.00
2023-11-04T22:48:23.628Z,100.00
2023-11-04T22:50:50.531Z,100.00
2023-11-04T22:53:17.403Z,100.00
2023-11-04T22:55:45.326Z,100.00
2023-11-04T22:58:12.504Z,100.00
2023-11-04T23:00:45.787Z,100.00
2023-11-04T23:03:16.755Z,100.00
2023-11-04T23:05:44.189Z,100.00
2023-11-04T23:08:11.321Z,100.00
2023-11-04T23:10:38.232Z,100.00
2023-11-04T23:13:05.141Z,100.00
2023-11-04T23:15:32.131Z,100.00
2023-11-04T23:17:58.996Z,100.00
2023-11-04T23:20:25.842Z,100.00
2023-11-04T23:22:52.786Z,100.00
2023-11-04T23:25:21.951Z,100.00
2023-11-04T23:27:49.983Z,100.00
2023-11-04T23:30:16.950Z,100.00
2023-11-04T23:32:44.352Z,100.00
2023-11-04T23:35:11.548Z,100.00
2023-11-04T23:37:38.575Z,100.00
2023-11-04T23:40:06.720Z,100.00
2023-11-04T23:42:34.063Z,100.00
2023-11-04T23:45:01.106Z,100.00
2023-11-04T23:47:27.925Z,100.00
2023-11-04T23:49:54.970Z,100.00
2023-11-04T23:52:23.383Z,100.00
2023-11-04T23:54:50.414Z,100.00
2023-11-04T23:57:17.793Z,100.00
2023-11-04T23:59:44.734Z,100.00
